Terminal Aerodrome Forecast
Issued by NWS

Home | Current Version | Previous Version | Text Only | Print | Product List | Glossary On
Versions: 1 2 3 4 5 6 7 8 9 10 11 12 13 14 15 16 17 18 19 20 21 22 23
000
FTUS45 KBOU 211735
TAFBJC
TAF
KBJC 211735Z 2118/2218 09005KT P6SM SCT080 SCT140 BKN200
     FM211900 33010KT P6SM VCSH SCT050 BKN100
      TEMPO 2121/2201 -TSRA BKN050CB
     FM220200 35008KT P6SM VCSH SCT050 BKN070
     FM220600 27007KT P6SM FEW080 SCT140=

USA.gov is the U.S. government's official web portal to all federal, state and local government web resources and services.